sensor_id;sensor_type;location;lat;lon;timestamp;P1;durP1;ratioP1;P2;durP2;ratioP2
10645;SDS011;5371;49.782;9.932;2022-09-13T00:02:22;9.35;;;8.20;;
10645;SDS011;5371;49.782;9.932;2022-09-13T00:04:49;9.68;;;8.07;;
10645;SDS011;5371;49.782;9.932;2022-09-13T00:07:17;8.90;;;8.00;;
10645;SDS011;5371;49.782;9.932;2022-09-13T00:09:45;10.52;;;8.55;;
10645;SDS011;5371;49.782;9.932;2022-09-13T00:12:14;11.57;;;8.73;;
10645;SDS011;5371;49.782;9.932;2022-09-13T00:14:42;11.93;;;8.77;;
10645;SDS011;5371;49.782;9.932;2022-09-13T00:17:08;11.50;;;8.25;;
10645;SDS011;5371;49.782;9.932;2022-09-13T00:19:36;10.32;;;8.45;;
10645;SDS011;5371;49.782;9.932;2022-09-13T00:22:03;10.30;;;8.68;;
10645;SDS011;5371;49.782;9.932;2022-09-13T00:24:32;10.48;;;8.90;;
10645;SDS011;5371;49.782;9.932;2022-09-13T00:27:13;12.82;;;8.20;;
10645;SDS011;5371;49.782;9.932;2022-09-13T00:29:40;11.45;;;8.63;;
10645;SDS011;5371;49.782;9.932;2022-09-13T00:32:07;11.00;;;8.55;;
10645;SDS011;5371;49.782;9.932;2022-09-13T00:34:34;9.20;;;8.23;;
10645;SDS011;5371;49.782;9.932;2022-09-13T00:37:04;9.63;;;8.25;;
10645;SDS011;5371;49.782;9.932;2022-09-13T00:39:31;10.57;;;8.23;;
10645;SDS011;5371;49.782;9.932;2022-09-13T00:41:58;13.25;;;8.38;;
10645;SDS011;5371;49.782;9.932;2022-09-13T00:47:24;11.82;;;8.77;;
10645;SDS011;5371;49.782;9.932;2022-09-13T00:49:58;10.82;;;9.00;;
10645;SDS011;5371;49.782;9.932;2022-09-13T00:52:28;12.52;;;8.90;;
10645;SDS011;5371;49.782;9.932;2022-09-13T00:54:57;10.50;;;8.45;;
10645;SDS011;5371;49.782;9.932;2022-09-13T00:57:29;10.02;;;8.25;;
10645;SDS011;5371;49.782;9.932;2022-09-13T01:00:03;10.30;;;8.35;;
10645;SDS011;5371;49.782;9.932;2022-09-13T01:02:39;11.30;;;8.20;;
10645;SDS011;5371;49.782;9.932;2022-09-13T01:05:13;11.57;;;8.27;;
10645;SDS011;5371;49.782;9.932;2022-09-13T01:07:43;9.70;;;8.70;;
10645;SDS011;5371;49.782;9.932;2022-09-13T01:10:10;9.85;;;8.18;;
10645;SDS011;5371;49.782;9.932;2022-09-13T01:12:39;12.05;;;9.07;;
10645;SDS011;5371;49.782;9.932;2022-09-13T01:15:12;10.07;;;8.57;;
10645;SDS011;5371;49.782;9.932;2022-09-13T01:17:39;9.13;;;8.05;;
10645;SDS011;5371;49.782;9.932;2022-09-13T01:20:09;13.70;;;8.85;;
10645;SDS011;5371;49.782;9.932;2022-09-13T01:22:41;10.30;;;8.80;;
10645;SDS011;5371;49.782;9.932;2022-09-13T01:25:57;10.50;;;8.57;;
10645;SDS011;5371;49.782;9.932;2022-09-13T01:28:53;10.43;;;8.10;;
10645;SDS011;5371;49.782;9.932;2022-09-13T01:31:46;10.15;;;7.90;;
10645;SDS011;5371;49.782;9.932;2022-09-13T01:34:23;11.35;;;8.55;;
10645;SDS011;5371;49.782;9.932;2022-09-13T01:37:01;11.32;;;8.57;;
10645;SDS011;5371;49.782;9.932;2022-09-13T01:39:55;10.45;;;8.05;;
10645;SDS011;5371;49.782;9.932;2022-09-13T01:42:36;11.55;;;8.25;;
10645;SDS011;5371;49.782;9.932;2022-09-13T01:45:20;9.82;;;7.63;;
10645;SDS011;5371;49.782;9.932;2022-09-13T01:47:57;13.38;;;8.93;;
10645;SDS011;5371;49.782;9.932;2022-09-13T01:50:30;10.63;;;8.25;;
10645;SDS011;5371;49.782;9.932;2022-09-13T01:53:05;12.85;;;8.00;;
10645;SDS011;5371;49.782;9.932;2022-09-13T01:55:38;9.88;;;8.45;;
10645;SDS011;5371;49.782;9.932;2022-09-13T01:58:13;12.05;;;8.73;;
10645;SDS011;5371;49.782;9.932;2022-09-13T02:00:47;9.50;;;8.20;;
10645;SDS011;5371;49.782;9.932;2022-09-13T02:03:24;12.70;;;9.02;;
10645;SDS011;5371;49.782;9.932;2022-09-13T02:05:56;10.73;;;8.60;;
10645;SDS011;5371;49.782;9.932;2022-09-13T02:08:31;10.50;;;8.82;;
10645;SDS011;5371;49.782;9.932;2022-09-13T02:11:05;12.40;;;8.95;;
10645;SDS011;5371;49.782;9.932;2022-09-13T02:13:35;10.38;;;8.25;;
10645;SDS011;5371;49.782;9.932;2022-09-13T02:16:07;10.82;;;8.55;;
10645;SDS011;5371;49.782;9.932;2022-09-13T02:18:39;10.02;;;8.23;;
10645;SDS011;5371;49.782;9.932;2022-09-13T02:21:10;11.80;;;8.50;;
10645;SDS011;5371;49.782;9.932;2022-09-13T02:23:40;10.18;;;8.48;;
10645;SDS011;5371;49.782;9.932;2022-09-13T02:26:13;13.30;;;8.13;;
10645;SDS011;5371;49.782;9.932;2022-09-13T02:28:42;9.50;;;8.13;;
10645;SDS011;5371;49.782;9.932;2022-09-13T02:31:13;10.57;;;8.48;;
10645;SDS011;5371;49.782;9.932;2022-09-13T02:33:46;12.25;;;8.38;;
10645;SDS011;5371;49.782;9.932;2022-09-13T02:36:18;11.00;;;8.50;;
10645;SDS011;5371;49.782;9.932;2022-09-13T02:38:50;11.52;;;9.10;;
10645;SDS011;5371;49.782;9.932;2022-09-13T02:41:22;12.75;;;9.18;;
10645;SDS011;5371;49.782;9.932;2022-09-13T02:43:56;12.20;;;9.52;;
10645;SDS011;5371;49.782;9.932;2022-09-13T02:46:34;10.93;;;8.98;;
10645;SDS011;5371;49.782;9.932;2022-09-13T02:49:23;9.93;;;8.40;;
10645;SDS011;5371;49.782;9.932;2022-09-13T02:51:57;12.52;;;9.00;;
10645;SDS011;5371;49.782;9.932;2022-09-13T02:54:34;10.23;;;8.52;;
10645;SDS011;5371;49.782;9.932;2022-09-13T02:57:06;10.00;;;8.50;;
10645;SDS011;5371;49.782;9.932;2022-09-13T02:59:38;11.05;;;9.05;;
10645;SDS011;5371;49.782;9.932;2022-09-13T03:02:06;11.13;;;9.32;;
10645;SDS011;5371;49.782;9.932;2022-09-13T03:04:36;10.45;;;9.15;;
10645;SDS011;5371;49.782;9.932;2022-09-13T03:07:05;9.60;;;8.60;;
10645;SDS011;5371;49.782;9.932;2022-09-13T03:09:35;11.13;;;9.02;;
10645;SDS011;5371;49.782;9.932;2022-09-13T03:12:16;10.00;;;8.15;;
10645;SDS011;5371;49.782;9.932;2022-09-13T03:14:59;11.63;;;8.00;;
10645;SDS011;5371;49.782;9.932;2022-09-13T03:17:39;10.60;;;8.27;;
10645;SDS011;5371;49.782;9.932;2022-09-13T03:20:17;9.07;;;7.93;;
10645;SDS011;5371;49.782;9.932;2022-09-13T03:23:01;12.15;;;7.38;;
10645;SDS011;5371;49.782;9.932;2022-09-13T03:25:58;9.95;;;7.97;;
10645;SDS011;5371;49.782;9.932;2022-09-13T03:28:37;10.55;;;8.73;;
10645;SDS011;5371;49.782;9.932;2022-09-13T03:31:17;10.43;;;8.43;;
10645;SDS011;5371;49.782;9.932;2022-09-13T03:33:50;10.85;;;8.68;;
10645;SDS011;5371;49.782;9.932;2022-09-13T03:36:26;10.20;;;8.52;;
10645;SDS011;5371;49.782;9.932;2022-09-13T03:38:59;12.20;;;8.52;;
10645;SDS011;5371;49.782;9.932;2022-09-13T03:41:35;11.05;;;8.77;;
10645;SDS011;5371;49.782;9.932;2022-09-13T03:44:08;16.55;;;9.50;;
10645;SDS011;5371;49.782;9.932;2022-09-13T03:46:39;12.90;;;10.18;;
10645;SDS011;5371;49.782;9.932;2022-09-13T03:49:09;14.43;;;10.43;;
10645;SDS011;5371;49.782;9.932;2022-09-13T03:51:41;14.18;;;10.02;;
10645;SDS011;5371;49.782;9.932;2022-09-13T03:54:13;14.70;;;10.43;;
10645;SDS011;5371;49.782;9.932;2022-09-13T03:56:43;11.60;;;9.10;;
10645;SDS011;5371;49.782;9.932;2022-09-13T03:59:34;10.73;;;8.45;;
10645;SDS011;5371;49.782;9.932;2022-09-13T04:02:03;12.18;;;8.77;;
10645;SDS011;5371;49.782;9.932;2022-09-13T04:04:31;11.10;;;8.93;;
10645;SDS011;5371;49.782;9.932;2022-09-13T04:06:59;11.15;;;8.55;;
10645;SDS011;5371;49.782;9.932;2022-09-13T04:09:28;9.60;;;7.97;;
10645;SDS011;5371;49.782;9.932;2022-09-13T04:11:55;10.52;;;8.45;;
10645;SDS011;5371;49.782;9.932;2022-09-13T04:14:22;12.20;;;9.25;;
10645;SDS011;5371;49.782;9.932;2022-09-13T04:16:51;10.85;;;8.93;;
10645;SDS011;5371;49.782;9.932;2022-09-13T04:19:19;11.13;;;8.95;;
10645;SDS011;5371;49.782;9.932;2022-09-13T04:21:47;11.50;;;8.73;;
10645;SDS011;5371;49.782;9.932;2022-09-13T04:24:16;12.25;;;9.07;;
10645;SDS011;5371;49.782;9.932;2022-09-13T04:26:43;11.63;;;8.38;;
10645;SDS011;5371;49.782;9.932;2022-09-13T04:29:10;12.00;;;9.02;;
10645;SDS011;5371;49.782;9.932;2022-09-13T04:31:37;12.13;;;8.88;;
10645;SDS011;5371;49.782;9.932;2022-09-13T04:34:04;12.05;;;9.18;;
10645;SDS011;5371;49.782;9.932;2022-09-13T04:36:32;11.90;;;9.37;;
10645;SDS011;5371;49.782;9.932;2022-09-13T04:38:59;15.07;;;8.82;;
10645;SDS011;5371;49.782;9.932;2022-09-13T04:41:28;12.93;;;9.27;;
10645;SDS011;5371;49.782;9.932;2022-09-13T04:43:57;13.15;;;9.23;;
10645;SDS011;5371;49.782;9.932;2022-09-13T04:46:24;14.10;;;9.40;;
10645;SDS011;5371;49.782;9.932;2022-09-13T04:48:51;13.75;;;9.55;;
10645;SDS011;5371;49.782;9.932;2022-09-13T04:51:18;11.70;;;9.02;;
10645;SDS011;5371;49.782;9.932;2022-09-13T04:53:46;10.98;;;9.30;;
10645;SDS011;5371;49.782;9.932;2022-09-13T04:56:17;13.48;;;9.35;;
10645;SDS011;5371;49.782;9.932;2022-09-13T04:58:45;14.50;;;9.48;;
10645;SDS011;5371;49.782;9.932;2022-09-13T05:01:12;11.38;;;9.38;;
10645;SDS011;5371;49.782;9.932;2022-09-13T05:03:39;11.75;;;8.80;;
10645;SDS011;5371;49.782;9.932;2022-09-13T05:06:06;10.77;;;8.85;;
10645;SDS011;5371;49.782;9.932;2022-09-13T05:08:35;15.70;;;10.20;;
10645;SDS011;5371;49.782;9.932;2022-09-13T05:11:03;13.38;;;10.18;;
10645;SDS011;5371;49.782;9.932;2022-09-13T05:13:30;13.68;;;9.57;;
10645;SDS011;5371;49.782;9.932;2022-09-13T05:15:59;12.52;;;9.63;;
10645;SDS011;5371;49.782;9.932;2022-09-13T05:18:30;12.98;;;9.85;;
10645;SDS011;5371;49.782;9.932;2022-09-13T05:20:59;12.13;;;9.32;;
10645;SDS011;5371;49.782;9.932;2022-09-13T05:23:27;11.82;;;9.38;;
10645;SDS011;5371;49.782;9.932;2022-09-13T05:25:56;13.00;;;9.80;;
10645;SDS011;5371;49.782;9.932;2022-09-13T05:28:25;13.38;;;9.85;;
10645;SDS011;5371;49.782;9.932;2022-09-13T05:30:53;14.30;;;9.48;;
10645;SDS011;5371;49.782;9.932;2022-09-13T05:33:23;12.90;;;9.80;;
10645;SDS011;5371;49.782;9.932;2022-09-13T05:35:50;15.20;;;10.68;;
10645;SDS011;5371;49.782;9.932;2022-09-13T05:38:17;13.02;;;10.10;;
10645;SDS011;5371;49.782;9.932;2022-09-13T05:40:45;15.45;;;9.82;;
10645;SDS011;5371;49.782;9.932;2022-09-13T05:43:12;12.88;;;10.07;;
10645;SDS011;5371;49.782;9.932;2022-09-13T05:45:39;10.63;;;8.95;;
10645;SDS011;5371;49.782;9.932;2022-09-13T05:48:07;13.65;;;9.85;;
10645;SDS011;5371;49.782;9.932;2022-09-13T05:50:37;13.32;;;9.73;;
10645;SDS011;5371;49.782;9.932;2022-09-13T05:53:05;11.57;;;9.52;;
10645;SDS011;5371;49.782;9.932;2022-09-13T05:55:33;12.02;;;9.88;;
10645;SDS011;5371;49.782;9.932;2022-09-13T05:58:01;11.52;;;9.35;;
10645;SDS011;5371;49.782;9.932;2022-09-13T06:00:28;12.52;;;9.52;;
10645;SDS011;5371;49.782;9.932;2022-09-13T06:02:56;12.80;;;9.15;;
10645;SDS011;5371;49.782;9.932;2022-09-13T06:05:23;10.85;;;9.35;;
10645;SDS011;5371;49.782;9.932;2022-09-13T06:07:52;12.30;;;9.95;;
10645;SDS011;5371;49.782;9.932;2022-09-13T06:10:19;13.07;;;10.48;;
10645;SDS011;5371;49.782;9.932;2022-09-13T06:12:46;13.75;;;11.13;;
10645;SDS011;5371;49.782;9.932;2022-09-13T06:15:15;14.98;;;10.75;;
10645;SDS011;5371;49.782;9.932;2022-09-13T06:17:43;12.48;;;10.15;;
10645;SDS011;5371;49.782;9.932;2022-09-13T06:20:10;12.43;;;10.55;;
10645;SDS011;5371;49.782;9.932;2022-09-13T06:22:37;13.13;;;9.68;;
10645;SDS011;5371;49.782;9.932;2022-09-13T06:25:05;12.02;;;9.43;;
10645;SDS011;5371;49.782;9.932;2022-09-13T06:27:33;10.55;;;9.30;;
10645;SDS011;5371;49.782;9.932;2022-09-13T06:30:00;11.88;;;9.27;;
10645;SDS011;5371;49.782;9.932;2022-09-13T06:32:27;10.98;;;9.05;;
10645;SDS011;5371;49.782;9.932;2022-09-13T06:34:54;11.88;;;9.25;;
10645;SDS011;5371;49.782;9.932;2022-09-13T06:37:21;11.85;;;9.80;;
10645;SDS011;5371;49.782;9.932;2022-09-13T06:39:48;14.88;;;9.43;;
10645;SDS011;5371;49.782;9.932;2022-09-13T06:42:16;14.60;;;10.07;;
10645;SDS011;5371;49.782;9.932;2022-09-13T06:44:43;14.18;;;9.70;;
10645;SDS011;5371;49.782;9.932;2022-09-13T06:47:12;13.80;;;9.55;;
10645;SDS011;5371;49.782;9.932;2022-09-13T06:49:39;15.18;;;11.30;;
10645;SDS011;5371;49.782;9.932;2022-09-13T06:52:07;13.35;;;10.60;;
10645;SDS011;5371;49.782;9.932;2022-09-13T06:54:34;16.90;;;11.30;;
10645;SDS011;5371;49.782;9.932;2022-09-13T06:57:01;14.13;;;10.90;;
10645;SDS011;5371;49.782;9.932;2022-09-13T06:59:30;14.93;;;10.57;;
10645;SDS011;5371;49.782;9.932;2022-09-13T07:01:59;13.70;;;10.63;;
10645;SDS011;5371;49.782;9.932;2022-09-13T07:04:26;13.48;;;10.27;;
10645;SDS011;5371;49.782;9.932;2022-09-13T07:06:56;13.95;;;10.73;;
10645;SDS011;5371;49.782;9.932;2022-09-13T07:09:23;12.73;;;10.00;;
10645;SDS011;5371;49.782;9.932;2022-09-13T07:11:52;13.45;;;10.02;;
10645;SDS011;5371;49.782;9.932;2022-09-13T07:14:21;15.73;;;9.90;;
10645;SDS011;5371;49.782;9.932;2022-09-13T07:16:50;12.55;;;9.75;;
10645;SDS011;5371;49.782;9.932;2022-09-13T07:19:19;13.45;;;10.45;;
10645;SDS011;5371;49.782;9.932;2022-09-13T07:21:47;13.05;;;10.10;;
10645;SDS011;5371;49.782;9.932;2022-09-13T07:24:15;15.25;;;10.90;;
10645;SDS011;5371;49.782;9.932;2022-09-13T07:26:44;13.35;;;10.75;;
10645;SDS011;5371;49.782;9.932;2022-09-13T07:29:12;12.65;;;10.23;;
10645;SDS011;5371;49.782;9.932;2022-09-13T07:31:44;14.15;;;11.45;;
10645;SDS011;5371;49.782;9.932;2022-09-13T07:34:14;14.90;;;11.57;;
10645;SDS011;5371;49.782;9.932;2022-09-13T07:36:43;13.88;;;10.57;;
10645;SDS011;5371;49.782;9.932;2022-09-13T07:39:11;14.00;;;11.13;;
10645;SDS011;5371;49.782;9.932;2022-09-13T07:41:38;12.27;;;10.25;;
10645;SDS011;5371;49.782;9.932;2022-09-13T07:44:05;13.43;;;10.95;;
10645;SDS011;5371;49.782;9.932;2022-09-13T07:46:33;15.40;;;10.25;;
10645;SDS011;5371;49.782;9.932;2022-09-13T07:49:04;17.10;;;12.73;;
10645;SDS011;5371;49.782;9.932;2022-09-13T07:51:34;13.20;;;10.85;;
10645;SDS011;5371;49.782;9.932;2022-09-13T07:54:03;12.95;;;10.85;;
10645;SDS011;5371;49.782;9.932;2022-09-13T07:56:32;13.52;;;11.00;;
10645;SDS011;5371;49.782;9.932;2022-09-13T07:59:00;15.20;;;11.63;;
10645;SDS011;5371;49.782;9.932;2022-09-13T08:01:33;14.57;;;11.13;;
10645;SDS011;5371;49.782;9.932;2022-09-13T08:04:01;16.08;;;12.27;;
10645;SDS011;5371;49.782;9.932;2022-09-13T08:06:30;13.95;;;11.38;;
10645;SDS011;5371;49.782;9.932;2022-09-13T08:08:59;14.88;;;12.10;;
10645;SDS011;5371;49.782;9.932;2022-09-13T08:11:27;14.52;;;12.23;;
10645;SDS011;5371;49.782;9.932;2022-09-13T08:13:56;15.60;;;11.68;;
10645;SDS011;5371;49.782;9.932;2022-09-13T08:16:24;14.68;;;11.95;;
10645;SDS011;5371;49.782;9.932;2022-09-13T08:18:52;18.15;;;12.38;;
10645;SDS011;5371;49.782;9.932;2022-09-13T08:21:20;18.90;;;12.68;;
10645;SDS011;5371;49.782;9.932;2022-09-13T08:23:48;18.35;;;12.73;;
10645;SDS011;5371;49.782;9.932;2022-09-13T08:26:16;15.00;;;12.52;;
10645;SDS011;5371;49.782;9.932;2022-09-13T08:28:43;15.20;;;12.95;;
10645;SDS011;5371;49.782;9.932;2022-09-13T08:31:14;18.08;;;13.85;;
10645;SDS011;5371;49.782;9.932;2022-09-13T08:33:44;19.77;;;15.35;;
10645;SDS011;5371;49.782;9.932;2022-09-13T08:36:12;20.38;;;15.57;;
10645;SDS011;5371;49.782;9.932;2022-09-13T08:38:43;24.42;;;17.60;;
10645;SDS011;5371;49.782;9.932;2022-09-13T08:41:19;24.98;;;17.67;;
10645;SDS011;5371;49.782;9.932;2022-09-13T08:43:56;24.02;;;16.80;;
10645;SDS011;5371;49.782;9.932;2022-09-13T08:46:30;27.25;;;18.13;;
10645;SDS011;5371;49.782;9.932;2022-09-13T08:49:02;30.67;;;18.35;;
10645;SDS011;5371;49.782;9.932;2022-09-13T08:51:34;19.55;;;15.55;;
10645;SDS011;5371;49.782;9.932;2022-09-13T08:54:07;19.98;;;13.88;;
10645;SDS011;5371;49.782;9.932;2022-09-13T08:56:39;17.25;;;12.52;;
10645;SDS011;5371;49.782;9.932;2022-09-13T08:59:17;16.50;;;12.32;;
10645;SDS011;5371;49.782;9.932;2022-09-13T09:01:54;15.93;;;11.30;;
10645;SDS011;5371;49.782;9.932;2022-09-13T09:04:33;15.88;;;11.32;;
10645;SDS011;5371;49.782;9.932;2022-09-13T09:07:05;15.73;;;10.77;;
10645;SDS011;5371;49.782;9.932;2022-09-13T09:09:39;11.60;;;9.80;;
10645;SDS011;5371;49.782;9.932;2022-09-13T09:12:18;12.68;;;10.18;;
10645;SDS011;5371;49.782;9.932;2022-09-13T09:14:54;12.27;;;10.13;;
10645;SDS011;5371;49.782;9.932;2022-09-13T09:17:27;13.25;;;10.07;;
10645;SDS011;5371;49.782;9.932;2022-09-13T09:20:02;17.67;;;10.70;;
10645;SDS011;5371;49.782;9.932;2022-09-13T09:22:41;16.45;;;10.13;;
10645;SDS011;5371;49.782;9.932;2022-09-13T09:25:09;13.50;;;9.93;;
10645;SDS011;5371;49.782;9.932;2022-09-13T09:27:39;13.15;;;9.57;;
10645;SDS011;5371;49.782;9.932;2022-09-13T09:30:11;13.50;;;9.70;;
10645;SDS011;5371;49.782;9.932;2022-09-13T09:33:00;11.95;;;9.80;;
10645;SDS011;5371;49.782;9.932;2022-09-13T09:35:50;14.75;;;10.00;;
10645;SDS011;5371;49.782;9.932;2022-09-13T09:38:36;14.80;;;9.85;;
10645;SDS011;5371;49.782;9.932;2022-09-13T09:41:12;17.50;;;9.90;;
10645;SDS011;5371;49.782;9.932;2022-09-13T09:43:47;15.05;;;9.23;;
10645;SDS011;5371;49.782;9.932;2022-09-13T09:46:22;11.30;;;8.82;;
10645;SDS011;5371;49.782;9.932;2022-09-13T09:48:53;10.95;;;9.05;;
10645;SDS011;5371;49.782;9.932;2022-09-13T09:51:22;11.63;;;8.35;;
10645;SDS011;5371;49.782;9.932;2022-09-13T09:53:53;10.48;;;8.13;;
10645;SDS011;5371;49.782;9.932;2022-09-13T09:56:28;9.40;;;8.00;;
10645;SDS011;5371;49.782;9.932;2022-09-13T09:58:58;12.80;;;8.13;;
10645;SDS011;5371;49.782;9.932;2022-09-13T10:01:27;11.13;;;8.35;;
10645;SDS011;5371;49.782;9.932;2022-09-13T10:04:00;9.35;;;7.05;;
10645;SDS011;5371;49.782;9.932;2022-09-13T10:06:33;7.30;;;6.45;;
10645;SDS011;5371;49.782;9.932;2022-09-13T10:09:02;9.55;;;6.95;;
10645;SDS011;5371;49.782;9.932;2022-09-13T10:11:37;10.80;;;7.13;;
10645;SDS011;5371;49.782;9.932;2022-09-13T10:14:09;8.15;;;6.55;;
10645;SDS011;5371;49.782;9.932;2022-09-13T10:17:00;8.63;;;6.85;;
10645;SDS011;5371;49.782;9.932;2022-09-13T10:19:29;8.05;;;6.63;;
10645;SDS011;5371;49.782;9.932;2022-09-13T10:22:00;7.65;;;6.10;;
10645;SDS011;5371;49.782;9.932;2022-09-13T10:24:30;8.50;;;6.30;;
10645;SDS011;5371;49.782;9.932;2022-09-13T10:26:58;7.97;;;6.07;;
10645;SDS011;5371;49.782;9.932;2022-09-13T10:29:28;9.70;;;6.60;;
10645;SDS011;5371;49.782;9.932;2022-09-13T10:31:57;7.10;;;6.40;;
10645;SDS011;5371;49.782;9.932;2022-09-13T10:34:28;7.25;;;6.50;;
10645;SDS011;5371;49.782;9.932;2022-09-13T10:37:00;7.22;;;6.53;;
10645;SDS011;5371;49.782;9.932;2022-09-13T10:39:30;8.27;;;6.03;;
10645;SDS011;5371;49.782;9.932;2022-09-13T10:42:01;8.48;;;5.97;;
10645;SDS011;5371;49.782;9.932;2022-09-13T10:44:38;9.38;;;6.72;;
10645;SDS011;5371;49.782;9.932;2022-09-13T10:47:11;10.55;;;6.88;;
10645;SDS011;5371;49.782;9.932;2022-09-13T10:49:45;9.60;;;6.43;;
10645;SDS011;5371;49.782;9.932;2022-09-13T10:52:30;9.55;;;6.75;;
10645;SDS011;5371;49.782;9.932;2022-09-13T10:55:21;9.20;;;6.97;;
10645;SDS011;5371;49.782;9.932;2022-09-13T10:57:51;9.80;;;7.15;;
10645;SDS011;5371;49.782;9.932;2022-09-13T11:00:21;9.45;;;6.78;;
10645;SDS011;5371;49.782;9.932;2022-09-13T11:03:01;8.50;;;7.47;;
10645;SDS011;5371;49.782;9.932;2022-09-13T11:05:38;13.52;;;8.80;;
10645;SDS011;5371;49.782;9.932;2022-09-13T11:08:20;10.88;;;6.90;;
10645;SDS011;5371;49.782;9.932;2022-09-13T11:10:59;8.52;;;7.20;;
10645;SDS011;5371;49.782;9.932;2022-09-13T11:13:40;10.55;;;7.40;;
10645;SDS011;5371;49.782;9.932;2022-09-13T11:16:27;8.18;;;6.68;;
10645;SDS011;5371;49.782;9.932;2022-09-13T11:19:13;9.75;;;6.70;;
10645;SDS011;5371;49.782;9.932;2022-09-13T11:22:17;11.23;;;7.25;;
10645;SDS011;5371;49.782;9.932;2022-09-13T11:24:55;9.90;;;7.07;;
10645;SDS011;5371;49.782;9.932;2022-09-13T11:27:31;7.70;;;6.47;;
10645;SDS011;5371;49.782;9.932;2022-09-13T11:30:09;8.85;;;7.45;;
10645;SDS011;5371;49.782;9.932;2022-09-13T11:32:51;8.95;;;7.63;;
10645;SDS011;5371;49.782;9.932;2022-09-13T11:35:52;11.68;;;7.18;;
10645;SDS011;5371;49.782;9.932;2022-09-13T11:38:32;11.05;;;7.30;;
10645;SDS011;5371;49.782;9.932;2022-09-13T11:41:07;8.15;;;7.13;;
10645;SDS011;5371;49.782;9.932;2022-09-13T11:43:48;8.30;;;7.32;;
10645;SDS011;5371;49.782;9.932;2022-09-13T11:46:26;8.43;;;7.57;;
10645;SDS011;5371;49.782;9.932;2022-09-13T11:52:02;8.85;;;7.60;;
10645;SDS011;5371;49.782;9.932;2022-09-13T11:54:41;8.13;;;6.60;;
10645;SDS011;5371;49.782;9.932;2022-09-13T11:57:21;9.90;;;6.22;;
10645;SDS011;5371;49.782;9.932;2022-09-13T11:59:52;10.30;;;8.15;;
10645;SDS011;5371;49.782;9.932;2022-09-13T12:02:24;11.35;;;8.45;;
10645;SDS011;5371;49.782;9.932;2022-09-13T12:04:57;7.65;;;6.00;;
10645;SDS011;5371;49.782;9.932;2022-09-13T12:07:30;8.02;;;5.68;;
10645;SDS011;5371;49.782;9.932;2022-09-13T12:10:05;9.82;;;5.90;;
10645;SDS011;5371;49.782;9.932;2022-09-13T12:12:39;8.10;;;6.57;;
10645;SDS011;5371;49.782;9.932;2022-09-13T12:15:07;6.88;;;5.95;;
10645;SDS011;5371;49.782;9.932;2022-09-13T12:17:42;8.23;;;6.43;;
10645;SDS011;5371;49.782;9.932;2022-09-13T12:20:15;7.05;;;5.82;;
10645;SDS011;5371;49.782;9.932;2022-09-13T12:22:50;8.43;;;5.75;;
10645;SDS011;5371;49.782;9.932;2022-09-13T12:25:20;7.43;;;5.68;;
10645;SDS011;5371;49.782;9.932;2022-09-13T12:27:53;8.35;;;6.13;;
10645;SDS011;5371;49.782;9.932;2022-09-13T12:30:24;6.15;;;5.13;;
10645;SDS011;5371;49.782;9.932;2022-09-13T12:32:59;5.00;;;4.60;;
10645;SDS011;5371;49.782;9.932;2022-09-13T12:35:28;5.40;;;4.78;;
10645;SDS011;5371;49.782;9.932;2022-09-13T12:43:59;6.30;;;4.72;;
10645;SDS011;5371;49.782;9.932;2022-09-13T12:46:42;4.68;;;4.25;;
10645;SDS011;5371;49.782;9.932;2022-09-13T12:49:24;5.00;;;4.50;;
10645;SDS011;5371;49.782;9.932;2022-09-13T12:52:22;4.82;;;3.63;;
10645;SDS011;5371;49.782;9.932;2022-09-13T12:57:58;4.32;;;3.63;;
10645;SDS011;5371;49.782;9.932;2022-09-13T13:00:41;4.22;;;3.83;;
10645;SDS011;5371;49.782;9.932;2022-09-13T13:03:26;5.47;;;3.97;;
10645;SDS011;5371;49.782;9.932;2022-09-13T13:06:06;7.45;;;4.47;;
10645;SDS011;5371;49.782;9.932;2022-09-13T13:08:36;6.65;;;4.35;;
10645;SDS011;5371;49.782;9.932;2022-09-13T13:11:04;6.00;;;4.43;;
10645;SDS011;5371;49.782;9.932;2022-09-13T13:13:36;6.32;;;4.22;;
10645;SDS011;5371;49.782;9.932;2022-09-13T13:16:18;7.00;;;4.18;;
10645;SDS011;5371;49.782;9.932;2022-09-13T13:18:48;7.15;;;4.35;;
10645;SDS011;5371;49.782;9.932;2022-09-13T13:21:26;4.00;;;3.55;;
10645;SDS011;5371;49.782;9.932;2022-09-13T13:27:07;4.07;;;3.67;;
10645;SDS011;5371;49.782;9.932;2022-09-13T13:33:22;4.47;;;3.13;;
10645;SDS011;5371;49.782;9.932;2022-09-13T13:35:51;3.72;;;3.35;;
10645;SDS011;5371;49.782;9.932;2022-09-13T13:38:39;3.22;;;2.90;;
10645;SDS011;5371;49.782;9.932;2022-09-13T13:53:39;4.30;;;3.90;;
10645;SDS011;5371;49.782;9.932;2022-09-13T13:56:14;5.85;;;3.60;;
10645;SDS011;5371;49.782;9.932;2022-09-13T13:58:46;3.72;;;3.05;;
10645;SDS011;5371;49.782;9.932;2022-09-13T14:01:20;5.53;;;3.40;;
10645;SDS011;5371;49.782;9.932;2022-09-13T14:06:52;5.93;;;3.45;;
10645;SDS011;5371;49.782;9.932;2022-09-13T14:09:29;4.03;;;3.55;;
10645;SDS011;5371;49.782;9.932;2022-09-13T14:12:09;3.72;;;3.42;;
10645;SDS011;5371;49.782;9.932;2022-09-13T14:14:55;4.68;;;3.58;;
10645;SDS011;5371;49.782;9.932;2022-09-13T14:23:30;4.45;;;3.15;;
10645;SDS011;5371;49.782;9.932;2022-09-13T14:25:59;4.43;;;3.38;;
10645;SDS011;5371;49.782;9.932;2022-09-13T14:28:28;4.65;;;3.40;;
10645;SDS011;5371;49.782;9.932;2022-09-13T14:30:57;5.93;;;3.40;;
10645;SDS011;5371;49.782;9.932;2022-09-13T14:33:25;3.85;;;3.55;;
10645;SDS011;5371;49.782;9.932;2022-09-13T14:35:57;4.75;;;3.60;;
10645;SDS011;5371;49.782;9.932;2022-09-13T14:38:28;5.60;;;3.30;;
10645;SDS011;5371;49.782;9.932;2022-09-13T14:41:01;3.45;;;3.15;;
10645;SDS011;5371;49.782;9.932;2022-09-13T14:43:36;4.70;;;3.50;;
10645;SDS011;5371;49.782;9.932;2022-09-13T14:46:06;4.10;;;3.20;;
10645;SDS011;5371;49.782;9.932;2022-09-13T14:48:45;4.57;;;3.53;;
10645;SDS011;5371;49.782;9.932;2022-09-13T14:51:17;4.40;;;3.30;;
10645;SDS011;5371;49.782;9.932;2022-09-13T14:53:51;3.60;;;3.30;;
10645;SDS011;5371;49.782;9.932;2022-09-13T14:56:25;3.70;;;3.03;;
10645;SDS011;5371;49.782;9.932;2022-09-13T14:58:57;4.80;;;3.45;;
10645;SDS011;5371;49.782;9.932;2022-09-13T15:01:27;3.83;;;3.05;;
10645;SDS011;5371;49.782;9.932;2022-09-13T15:03:57;3.83;;;3.45;;
10645;SDS011;5371;49.782;9.932;2022-09-13T15:06:26;3.90;;;3.30;;
10645;SDS011;5371;49.782;9.932;2022-09-13T15:08:58;4.88;;;3.20;;
10645;SDS011;5371;49.782;9.932;2022-09-13T15:11:40;4.10;;;3.10;;
10645;SDS011;5371;49.782;9.932;2022-09-13T15:14:22;3.83;;;3.40;;
10645;SDS011;5371;49.782;9.932;2022-09-13T15:16:52;5.00;;;3.80;;
10645;SDS011;5371;49.782;9.932;2022-09-13T15:19:38;5.05;;;3.60;;
10645;SDS011;5371;49.782;9.932;2022-09-13T15:24:57;4.53;;;3.72;;
10645;SDS011;5371;49.782;9.932;2022-09-13T15:27:26;3.90;;;3.40;;
10645;SDS011;5371;49.782;9.932;2022-09-13T15:29:55;3.75;;;3.35;;
10645;SDS011;5371;49.782;9.932;2022-09-13T15:32:27;7.50;;;3.67;;
10645;SDS011;5371;49.782;9.932;2022-09-13T15:34:57;5.60;;;3.60;;
10645;SDS011;5371;49.782;9.932;2022-09-13T15:37:30;5.15;;;3.60;;
10645;SDS011;5371;49.782;9.932;2022-09-13T15:40:13;4.35;;;3.47;;
10645;SDS011;5371;49.782;9.932;2022-09-13T15:42:50;5.78;;;3.80;;
10645;SDS011;5371;49.782;9.932;2022-09-13T15:45:18;5.25;;;3.70;;
10645;SDS011;5371;49.782;9.932;2022-09-13T15:47:48;4.82;;;3.85;;
10645;SDS011;5371;49.782;9.932;2022-09-13T15:50:18;4.63;;;3.65;;
10645;SDS011;5371;49.782;9.932;2022-09-13T15:52:47;5.30;;;4.05;;
10645;SDS011;5371;49.782;9.932;2022-09-13T15:55:15;4.35;;;3.50;;
10645;SDS011;5371;49.782;9.932;2022-09-13T15:57:42;5.00;;;3.70;;
10645;SDS011;5371;49.782;9.932;2022-09-13T16:00:13;3.83;;;3.50;;
10645;SDS011;5371;49.782;9.932;2022-09-13T16:02:42;5.28;;;3.60;;
10645;SDS011;5371;49.782;9.932;2022-09-13T16:05:09;5.05;;;3.90;;
10645;SDS011;5371;49.782;9.932;2022-09-13T16:07:37;5.35;;;4.10;;
10645;SDS011;5371;49.782;9.932;2022-09-13T16:10:06;5.63;;;4.00;;